createdAt,value
2022-07-29T00:01:44.662Z,28.30
2022-07-29T00:04:14.493Z,28.40
2022-07-29T00:06:43.821Z,28.50
2022-07-29T00:09:12.856Z,28.50
2022-07-29T00:11:41.733Z,28.50
2022-07-29T00:14:10.714Z,28.60
2022-07-29T00:16:40.213Z,28.60
2022-07-29T00:19:09.490Z,28.60
2022-07-29T00:21:40.211Z,28.70
2022-07-29T00:24:09.607Z,28.70
2022-07-29T00:26:38.745Z,28.70
2022-07-29T00:29:33.184Z,28.80
2022-07-29T00:31:57.220Z,28.80
2022-07-29T00:34:46.123Z,28.90
2022-07-29T00:37:15.263Z,29.00
2022-07-29T00:39:44.479Z,29.00
2022-07-29T00:42:13.767Z,29.00
2022-07-29T00:44:44.242Z,29.00
2022-07-29T00:47:14.850Z,29.10
2022-07-29T00:49:45.332Z,29.10
2022-07-29T00:52:16.869Z,29.20
2022-07-29T00:54:46.622Z,29.20
2022-07-29T00:57:16.096Z,29.20
2022-07-29T00:59:45.330Z,29.20
2022-07-29T01:02:14.529Z,29.30
2022-07-29T01:04:44.336Z,29.30
2022-07-29T01:07:13.806Z,29.20
2022-07-29T01:09:45.816Z,29.30
2022-07-29T01:12:20.987Z,29.20
2022-07-29T01:14:52.144Z,29.20
2022-07-29T01:17:28.734Z,29.20
2022-07-29T01:20:22.110Z,29.20
2022-07-29T01:23:12.390Z,29.30
2022-07-29T01:26:01.654Z,29.30
2022-07-29T01:28:58.137Z,29.40
2022-07-29T01:31:36.593Z,29.50
2022-07-29T01:34:13.988Z,29.60
2022-07-29T01:36:49.752Z,29.70
2022-07-29T01:39:33.411Z,29.70
2022-07-29T01:42:15.313Z,29.80
2022-07-29T01:45:21.363Z,29.80
2022-07-29T01:48:14.092Z,29.80
2022-07-29T01:51:01.786Z,29.80
2022-07-29T01:53:38.442Z,29.80
2022-07-29T01:56:10.802Z,29.90
2022-07-29T01:58:43.094Z,29.90
2022-07-29T02:01:14.140Z,30.00
2022-07-29T02:03:48.275Z,30.00
2022-07-29T02:06:21.621Z,30.10
2022-07-29T02:08:52.383Z,30.10
2022-07-29T02:11:21.824Z,30.20
2022-07-29T02:13:53.176Z,30.20
2022-07-29T02:16:25.428Z,30.30
2022-07-29T02:18:56.332Z,30.30
2022-07-29T02:21:29.779Z,30.40
2022-07-29T02:24:03.580Z,30.40
2022-07-29T02:26:36.343Z,30.50
2022-07-29T02:29:06.186Z,30.50
2022-07-29T02:31:37.281Z,30.60
2022-07-29T02:34:08.582Z,30.70
2022-07-29T02:36:39.048Z,30.80
2022-07-29T02:39:10.766Z,30.80
2022-07-29T02:41:48.873Z,30.80
2022-07-29T02:44:21.108Z,30.80
2022-07-29T02:46:55.787Z,30.90
2022-07-29T02:49:43.729Z,30.90
2022-07-29T02:52:31.229Z,31.00
2022-07-29T02:55:05.123Z,31.00
2022-07-29T02:57:53.893Z,31.10
2022-07-29T03:00:29.618Z,31.10
2022-07-29T03:03:02.987Z,31.10
2022-07-29T03:05:34.755Z,31.10
2022-07-29T03:08:07.721Z,31.10
2022-07-29T03:10:37.570Z,31.10
2022-07-29T03:13:08.890Z,31.20
2022-07-29T03:15:38.553Z,31.20
2022-07-29T03:18:09.280Z,31.20
2022-07-29T03:20:39.663Z,31.30
2022-07-29T03:23:10.318Z,31.50
2022-07-29T03:25:39.847Z,31.60
2022-07-29T03:28:09.063Z,31.70
2022-07-29T03:30:38.363Z,31.90
2022-07-29T03:33:13.386Z,32.00
2022-07-29T03:35:43.435Z,32.00
2022-07-29T03:38:12.604Z,32.10
2022-07-29T03:40:58.882Z,32.20
2022-07-29T03:43:32.942Z,32.20
2022-07-29T03:46:04.675Z,32.30
2022-07-29T03:48:37.964Z,32.30
2022-07-29T03:51:07.333Z,32.30
2022-07-29T03:53:38.916Z,32.30
2022-07-29T03:56:11.807Z,32.30
2022-07-29T03:58:41.525Z,32.40
2022-07-29T04:01:11.491Z,32.40
2022-07-29T04:03:41.451Z,32.40
2022-07-29T04:06:10.735Z,32.40
2022-07-29T04:08:40.001Z,32.40
2022-07-29T04:11:09.470Z,32.40
2022-07-29T04:13:38.667Z,32.40
2022-07-29T04:16:08.155Z,32.60
2022-07-29T04:18:37.381Z,32.70
2022-07-29T04:21:06.594Z,32.70
2022-07-29T04:23:35.893Z,32.60
2022-07-29T04:26:19.130Z,32.60
2022-07-29T04:28:49.019Z,32.60
2022-07-29T04:31:21.275Z,32.60
2022-07-29T04:33:54.577Z,32.50
2022-07-29T04:36:29.551Z,32.40
2022-07-29T04:38:59.262Z,32.30
2022-07-29T04:41:33.248Z,32.20
2022-07-29T04:44:07.494Z,32.20
2022-07-29T04:46:38.728Z,32.10
2022-07-29T04:49:08.231Z,32.00
2022-07-29T04:51:38.044Z,32.00
2022-07-29T04:54:07.433Z,32.00
2022-07-29T04:56:36.616Z,32.00
2022-07-29T04:59:06.018Z,32.00
2022-07-29T05:01:35.724Z,32.00
2022-07-29T05:04:06.039Z,31.90
2022-07-29T05:06:35.510Z,31.90
2022-07-29T05:09:05.282Z,32.00
2022-07-29T05:11:34.406Z,32.00
2022-07-29T05:14:03.560Z,31.90
2022-07-29T05:16:32.764Z,31.90
2022-07-29T05:19:01.897Z,31.80
2022-07-29T05:21:31.136Z,31.70
2022-07-29T05:24:00.414Z,31.50
2022-07-29T05:26:29.666Z,31.30
2022-07-29T05:28:59.483Z,31.10
2022-07-29T05:31:28.777Z,30.90
2022-07-29T05:33:57.997Z,30.70
2022-07-29T05:36:27.197Z,30.60
2022-07-29T05:38:56.486Z,30.50
2022-07-29T05:41:25.700Z,30.40
2022-07-29T05:43:54.900Z,30.40
2022-07-29T05:46:24.132Z,30.30
2022-07-29T05:48:53.481Z,30.30
2022-07-29T05:51:22.776Z,30.30
2022-07-29T05:53:52.069Z,30.30
2022-07-29T05:56:21.325Z,30.30
2022-07-29T05:58:50.573Z,30.40
2022-07-29T06:01:19.864Z,30.40
2022-07-29T06:03:49.263Z,30.50
2022-07-29T06:06:18.454Z,30.60
2022-07-29T06:08:47.746Z,30.60
2022-07-29T06:11:16.997Z,30.70
2022-07-29T06:13:46.193Z,30.80
2022-07-29T06:16:15.876Z,30.90
2022-07-29T06:18:59.313Z,31.10
2022-07-29T06:21:28.498Z,31.20
2022-07-29T06:23:57.666Z,31.30
2022-07-29T06:26:31.327Z,31.40
2022-07-29T06:29:01.247Z,31.50
2022-07-29T06:31:30.471Z,31.60
2022-07-29T06:33:59.655Z,31.70
2022-07-29T06:36:29.822Z,31.70
2022-07-29T06:38:59.517Z,31.70
2022-07-29T06:41:31.949Z,31.80
2022-07-29T06:44:01.618Z,31.80
2022-07-29T06:46:31.337Z,31.80
2022-07-29T06:49:00.684Z,31.80
2022-07-29T06:51:29.922Z,31.80
2022-07-29T06:54:03.207Z,31.80
2022-07-29T06:56:38.660Z,31.80
2022-07-29T06:59:11.291Z,31.80
2022-07-29T07:01:42.244Z,31.80
2022-07-29T07:04:12.488Z,31.80
2022-07-29T07:06:41.673Z,31.80
2022-07-29T07:09:10.813Z,31.80
2022-07-29T07:11:39.995Z,31.80
2022-07-29T07:14:09.173Z,31.90
2022-07-29T07:16:38.362Z,32.00
2022-07-29T07:19:07.559Z,32.00
2022-07-29T07:21:36.842Z,32.10
2022-07-29T07:24:06.313Z,32.20
2022-07-29T07:26:35.480Z,32.20
2022-07-29T07:29:05.063Z,32.30
2022-07-29T07:31:34.749Z,32.40
2022-07-29T07:34:03.997Z,32.40
2022-07-29T07:36:33.233Z,32.60
2022-07-29T07:39:02.580Z,32.60
2022-07-29T07:41:32.616Z,32.60
2022-07-29T07:44:01.890Z,32.70
2022-07-29T07:46:31.133Z,32.70
2022-07-29T07:49:00.487Z,32.80
2022-07-29T07:51:29.890Z,32.80
2022-07-29T07:53:59.108Z,32.80
2022-07-29T07:56:33.249Z,32.80
2022-07-29T07:59:04.320Z,32.80
2022-07-29T08:01:47.866Z,32.80
2022-07-29T08:04:27.735Z,32.80
2022-07-29T08:06:59.226Z,32.70
2022-07-29T08:09:30.654Z,32.70
2022-07-29T08:12:01.819Z,32.60
2022-07-29T08:14:32.353Z,32.60
2022-07-29T08:17:01.855Z,32.60
2022-07-29T08:19:31.274Z,32.60
2022-07-29T08:22:00.517Z,32.60
2022-07-29T08:24:49.390Z,32.60
2022-07-29T08:27:41.786Z,32.60
2022-07-29T08:30:09.951Z,32.60
2022-07-29T08:32:55.463Z,32.70
2022-07-29T08:35:26.067Z,32.80
2022-07-29T08:37:55.948Z,32.80
2022-07-29T08:40:30.581Z,32.80
2022-07-29T08:43:06.606Z,32.80
2022-07-29T08:45:53.719Z,32.80
2022-07-29T08:48:25.100Z,32.80
2022-07-29T08:50:58.901Z,32.80
2022-07-29T08:53:30.930Z,32.80
2022-07-29T08:56:01.154Z,32.80
2022-07-29T08:58:36.751Z,32.80
2022-07-29T09:01:07.593Z,32.80
2022-07-29T09:03:43.211Z,32.80
2022-07-29T09:06:15.569Z,32.80
2022-07-29T09:08:45.130Z,32.80
2022-07-29T09:11:15.974Z,32.80
2022-07-29T09:13:45.286Z,32.70
2022-07-29T09:16:26.749Z,32.70
2022-07-29T09:19:03.641Z,32.60
2022-07-29T09:22:03.880Z,32.60
2022-07-29T09:24:47.539Z,32.50
2022-07-29T09:27:28.238Z,32.50
2022-07-29T09:30:00.654Z,32.40
2022-07-29T09:32:31.859Z,32.40
2022-07-29T09:35:21.839Z,32.30
2022-07-29T09:37:51.612Z,32.20
2022-07-29T09:40:23.483Z,32.20
2022-07-29T09:42:53.546Z,32.20
2022-07-29T09:45:39.715Z,32.10
2022-07-29T09:48:21.647Z,32.20
2022-07-29T09:50:52.649Z,32.20
2022-07-29T09:53:42.254Z,32.10
2022-07-29T09:56:13.083Z,32.20
2022-07-29T09:58:42.452Z,32.30
2022-07-29T10:01:11.688Z,32.30
2022-07-29T10:03:59.384Z,32.20
2022-07-29T10:06:28.689Z,32.20
2022-07-29T10:08:58.042Z,32.20
2022-07-29T10:11:27.802Z,32.20
2022-07-29T10:14:17.950Z,32.10
2022-07-29T10:16:48.044Z,32.10
2022-07-29T10:19:17.530Z,32.10
2022-07-29T10:21:47.408Z,32.10
2022-07-29T10:24:16.735Z,32.00
2022-07-29T10:26:48.434Z,32.00
2022-07-29T10:29:17.674Z,31.90
2022-07-29T10:31:58.319Z,32.00
2022-07-29T10:34:48.635Z,31.90
2022-07-29T10:37:46.431Z,31.90
2022-07-29T10:40:50.524Z,32.00
2022-07-29T10:43:31.872Z,32.00
2022-07-29T10:46:03.079Z,32.00
2022-07-29T10:48:58.538Z,32.00
2022-07-29T10:51:27.780Z,31.90
2022-07-29T10:53:57.599Z,31.90
2022-07-29T10:56:33.472Z,31.80
2022-07-29T10:59:22.941Z,31.80
2022-07-29T11:01:54.394Z,31.80
2022-07-29T11:04:51.456Z,31.80
2022-07-29T11:07:20.682Z,31.70
2022-07-29T11:10:17.796Z,31.70
2022-07-29T11:12:50.352Z,31.60
2022-07-29T11:15:24.918Z,31.60
2022-07-29T11:18:00.296Z,31.50
2022-07-29T11:20:52.241Z,31.50
2022-07-29T11:23:34.646Z,31.40
2022-07-29T11:26:23.761Z,31.40
2022-07-29T11:28:58.385Z,31.30
2022-07-29T11:31:46.599Z,31.30
2022-07-29T11:34:34.970Z,31.30
2022-07-29T11:37:13.590Z,31.30
2022-07-29T11:39:44.579Z,31.20
2022-07-29T11:42:33.025Z,31.10
2022-07-29T11:45:43.983Z,31.10
2022-07-29T11:48:29.821Z,31.10
2022-07-29T11:51:03.034Z,31.00
2022-07-29T11:53:33.314Z,31.10
2022-07-29T11:56:04.018Z,31.00
2022-07-29T11:58:34.230Z,31.00
2022-07-29T12:01:04.819Z,30.90
2022-07-29T12:03:36.432Z,30.90
2022-07-29T12:06:15.269Z,30.90
2022-07-29T12:08:45.806Z,30.90
2022-07-29T12:11:20.883Z,30.80
2022-07-29T12:13:51.991Z,30.80
2022-07-29T12:16:28.146Z,30.80
2022-07-29T12:19:00.707Z,30.70
2022-07-29T12:21:31.824Z,30.70
2022-07-29T12:24:08.750Z,30.70
2022-07-29T12:26:40.534Z,30.60
2022-07-29T12:29:15.569Z,30.60
2022-07-29T12:31:57.838Z,30.60
2022-07-29T12:34:31.733Z,30.60
2022-07-29T12:37:01.158Z,30.60
2022-07-29T12:39:30.792Z,30.50
2022-07-29T12:42:04.333Z,30.50
2022-07-29T12:44:53.943Z,30.50
2022-07-29T12:47:23.479Z,30.50
2022-07-29T12:50:09.552Z,30.50
2022-07-29T12:52:38.917Z,30.50
2022-07-29T12:55:08.527Z,30.50
2022-07-29T12:57:49.343Z,30.40
2022-07-29T13:00:19.034Z,30.40
2022-07-29T13:02:59.654Z,30.30
2022-07-29T13:05:49.112Z,30.30
2022-07-29T13:08:22.779Z,30.30
2022-07-29T13:10:52.497Z,30.30
2022-07-29T13:13:21.605Z,30.30
2022-07-29T13:16:09.993Z,30.30
2022-07-29T13:18:39.134Z,30.20
2022-07-29T13:21:18.881Z,30.20
2022-07-29T13:23:48.250Z,30.20
2022-07-29T13:26:21.469Z,30.20
2022-07-29T13:28:50.650Z,30.20
2022-07-29T13:31:19.809Z,30.20
2022-07-29T13:33:50.230Z,30.20
2022-07-29T13:36:19.890Z,30.10
2022-07-29T13:38:49.119Z,30.20
2022-07-29T13:41:18.427Z,30.10
2022-07-29T13:43:48.380Z,30.10
2022-07-29T13:46:19.474Z,30.10
2022-07-29T13:48:48.914Z,30.10
2022-07-29T13:51:18.160Z,30.00
2022-07-29T13:53:47.444Z,30.00
2022-07-29T13:56:16.674Z,29.90
2022-07-29T13:58:45.958Z,29.90
2022-07-29T14:01:15.180Z,29.90
2022-07-29T14:03:45.937Z,29.90
2022-07-29T14:06:15.808Z,29.90
2022-07-29T14:08:47.615Z,29.90
2022-07-29T14:11:16.810Z,29.90
2022-07-29T14:13:46.030Z,29.90
2022-07-29T14:16:15.481Z,29.90
2022-07-29T14:18:44.901Z,29.90
2022-07-29T14:21:14.484Z,29.90
2022-07-29T14:23:43.801Z,29.90
2022-07-29T14:26:21.360Z,29.90
2022-07-29T14:28:53.467Z,29.80
2022-07-29T14:31:22.689Z,29.80
2022-07-29T14:33:52.526Z,29.80
2022-07-29T14:36:21.736Z,29.80
2022-07-29T14:38:50.947Z,29.70
2022-07-29T14:41:20.214Z,29.70
2022-07-29T14:43:49.386Z,29.70
2022-07-29T14:46:18.663Z,29.70
2022-07-29T14:48:47.908Z,29.70
2022-07-29T14:51:17.171Z,29.70
2022-07-29T14:53:46.415Z,29.70
2022-07-29T14:56:36.109Z,29.70
2022-07-29T14:59:04.725Z,29.70
2022-07-29T15:01:33.980Z,29.70
2022-07-29T15:04:03.138Z,29.70
2022-07-29T15:06:32.362Z,29.70
2022-07-29T15:09:01.569Z,29.70
2022-07-29T15:11:30.716Z,29.70
2022-07-29T15:14:06.321Z,29.70
2022-07-29T15:16:38.155Z,29.70
2022-07-29T15:19:07.835Z,29.70
2022-07-29T15:21:48.036Z,29.70
2022-07-29T15:24:19.265Z,29.70
2022-07-29T15:26:49.534Z,29.60
2022-07-29T15:29:18.939Z,29.60
2022-07-29T15:31:48.098Z,29.60
2022-07-29T15:34:17.491Z,29.60
2022-07-29T15:36:54.040Z,29.50
2022-07-29T15:39:24.514Z,29.50
2022-07-29T15:41:53.938Z,29.50
2022-07-29T15:44:23.505Z,29.50
2022-07-29T15:47:08.945Z,29.50
2022-07-29T15:49:47.915Z,29.50
2022-07-29T15:52:25.910Z,29.50
2022-07-29T15:54:57.377Z,29.60
2022-07-29T15:57:27.299Z,29.50
2022-07-29T15:59:56.535Z,29.50
2022-07-29T16:02:25.715Z,29.50
2022-07-29T16:04:54.950Z,29.50
2022-07-29T16:07:24.123Z,29.40
2022-07-29T16:10:00.641Z,29.40
2022-07-29T16:12:29.785Z,29.40
2022-07-29T16:14:59.071Z,29.40
2022-07-29T16:17:29.164Z,29.40
2022-07-29T16:19:58.832Z,29.40
2022-07-29T16:22:28.034Z,29.30
2022-07-29T16:24:57.191Z,29.30
2022-07-29T16:27:35.369Z,29.20
2022-07-29T16:30:11.009Z,29.20
2022-07-29T16:32:41.132Z,29.10
2022-07-29T16:35:11.350Z,29.10
2022-07-29T16:37:41.087Z,29.10
2022-07-29T16:40:11.948Z,29.10
2022-07-29T16:42:46.867Z,29.10
2022-07-29T16:45:21.202Z,29.10
2022-07-29T16:47:50.874Z,29.10
2022-07-29T16:50:20.512Z,29.00
2022-07-29T16:52:49.671Z,29.00
2022-07-29T16:55:18.904Z,29.00
2022-07-29T16:57:48.486Z,28.90
2022-07-29T17:04:02.172Z,28.90
2022-07-29T17:06:31.449Z,28.90
2022-07-29T17:09:00.682Z,28.90
2022-07-29T17:11:53.020Z,29.00
2022-07-29T17:14:19.350Z,28.90
2022-07-29T17:17:03.036Z,28.90
2022-07-29T17:19:35.152Z,28.90
2022-07-29T17:22:19.024Z,28.90
2022-07-29T17:24:49.584Z,28.80
2022-07-29T17:27:19.391Z,28.80
2022-07-29T17:29:48.748Z,28.80
2022-07-29T17:32:18.291Z,28.80
2022-07-29T17:34:47.486Z,28.80
2022-07-29T17:37:16.684Z,28.80
2022-07-29T17:39:46.089Z,28.80
2022-07-29T17:42:16.427Z,28.80
2022-07-29T17:44:46.028Z,28.70
2022-07-29T17:47:16.077Z,28.80
2022-07-29T17:49:46.292Z,28.80
2022-07-29T17:52:15.459Z,28.80
2022-07-29T17:54:44.633Z,28.80
2022-07-29T17:57:13.917Z,28.70
2022-07-29T17:59:43.076Z,28.70
2022-07-29T18:02:13.997Z,28.70
2022-07-29T18:04:43.236Z,28.70
2022-07-29T18:07:12.998Z,28.70
2022-07-29T18:09:42.180Z,28.70
2022-07-29T18:12:11.683Z,28.70
2022-07-29T18:14:40.955Z,28.70
2022-07-29T18:17:10.218Z,28.70
2022-07-29T18:19:39.678Z,28.70
2022-07-29T18:22:09.774Z,28.70
2022-07-29T18:24:39.839Z,28.60
2022-07-29T18:27:09.112Z,28.70
2022-07-29T18:29:38.335Z,28.60
2022-07-29T18:32:08.135Z,28.60
2022-07-29T18:34:37.331Z,28.60
2022-07-29T18:37:06.580Z,28.60
2022-07-29T18:39:35.922Z,28.60
2022-07-29T18:42:05.178Z,28.60
2022-07-29T18:44:34.873Z,28.60
2022-07-29T18:47:12.877Z,28.60
2022-07-29T18:49:42.476Z,28.60
2022-07-29T18:52:11.664Z,28.60
2022-07-29T18:54:41.129Z,28.50
2022-07-29T18:57:55.735Z,28.50
2022-07-29T18:59:59.567Z,28.50
2022-07-29T19:02:29.510Z,28.50
2022-07-29T19:04:58.835Z,28.50
2022-07-29T19:07:28.246Z,28.50
2022-07-29T19:09:57.455Z,28.50
2022-07-29T19:12:26.937Z,28.50
2022-07-29T19:14:56.510Z,28.40
2022-07-29T19:17:25.630Z,28.40
2022-07-29T19:19:55.438Z,28.40
2022-07-29T19:22:24.903Z,28.40
2022-07-29T19:24:54.621Z,28.40
2022-07-29T19:27:24.046Z,28.40
2022-07-29T19:29:55.811Z,28.40
2022-07-29T19:32:28.633Z,28.40
2022-07-29T19:35:17.475Z,28.40
2022-07-29T19:37:46.647Z,28.40
2022-07-29T19:40:17.593Z,28.40
2022-07-29T19:42:46.874Z,28.40
2022-07-29T19:45:16.167Z,28.40
2022-07-29T19:47:45.496Z,28.30
2022-07-29T19:50:14.844Z,28.30
2022-07-29T19:52:44.820Z,28.30
2022-07-29T19:55:14.293Z,28.30
2022-07-29T19:57:43.600Z,28.30
2022-07-29T20:00:14.199Z,28.20
2022-07-29T20:02:44.724Z,28.20
2022-07-29T20:05:15.587Z,28.20
2022-07-29T20:07:45.071Z,28.20
2022-07-29T20:10:14.413Z,28.20
2022-07-29T20:12:44.450Z,28.20
2022-07-29T20:15:16.771Z,28.20
2022-07-29T20:17:46.023Z,28.20
2022-07-29T20:20:15.170Z,28.20
2022-07-29T20:22:44.486Z,28.20
2022-07-29T20:25:14.886Z,28.20
2022-07-29T20:27:44.384Z,28.20
2022-07-29T20:30:15.740Z,28.20
2022-07-29T20:32:47.309Z,28.10
2022-07-29T20:35:16.690Z,28.10
2022-07-29T20:37:52.263Z,28.10
2022-07-29T20:40:27.548Z,28.10
2022-07-29T20:42:57.429Z,28.00
2022-07-29T20:45:26.921Z,28.00
2022-07-29T20:47:56.161Z,28.00
2022-07-29T20:50:26.128Z,28.00
2022-07-29T20:52:55.315Z,27.90
2022-07-29T20:55:24.760Z,27.90
2022-07-29T20:57:53.931Z,27.90
2022-07-29T21:00:23.138Z,27.90
2022-07-29T21:02:53.032Z,27.90
2022-07-29T21:05:22.364Z,27.90
2022-07-29T21:07:53.400Z,27.80
2022-07-29T21:10:25.806Z,27.80
2022-07-29T21:12:55.012Z,27.80
2022-07-29T21:15:24.755Z,27.80
2022-07-29T21:18:01.738Z,27.80
2022-07-29T21:20:32.486Z,27.80
2022-07-29T21:23:01.577Z,27.80
2022-07-29T21:25:30.792Z,27.80
2022-07-29T21:28:19.603Z,27.80
2022-07-29T21:30:48.817Z,27.80
2022-07-29T21:33:18.072Z,27.80
2022-07-29T21:36:15.061Z,27.80
2022-07-29T21:38:37.066Z,27.80
2022-07-29T21:41:07.844Z,27.80
2022-07-29T21:43:37.049Z,27.80
2022-07-29T21:46:11.465Z,27.80
2022-07-29T21:48:44.377Z,27.70
2022-07-29T21:51:14.031Z,27.70
2022-07-29T21:53:43.296Z,27.80
2022-07-29T21:56:15.023Z,27.70
2022-07-29T21:58:44.781Z,27.70
2022-07-29T22:01:16.735Z,27.70
2022-07-29T22:03:46.071Z,27.70
2022-07-29T22:06:18.124Z,27.70
2022-07-29T22:08:49.253Z,27.70
2022-07-29T22:11:18.379Z,27.70
2022-07-29T22:13:49.497Z,27.60
2022-07-29T22:16:19.031Z,27.60
2022-07-29T22:18:49.684Z,27.60
2022-07-29T22:21:18.936Z,27.60
2022-07-29T22:23:48.130Z,27.60
2022-07-29T22:26:17.310Z,27.60
2022-07-29T22:28:46.480Z,27.50
2022-07-29T22:31:15.835Z,27.50
2022-07-29T22:33:45.174Z,27.50
2022-07-29T22:36:14.494Z,27.50
2022-07-29T22:38:43.702Z,27.50
2022-07-29T22:41:14.828Z,27.50
2022-07-29T22:43:44.875Z,27.50
2022-07-29T22:46:14.149Z,27.50
2022-07-29T22:48:43.488Z,27.50
2022-07-29T22:51:12.712Z,27.50
2022-07-29T22:53:42.062Z,27.40
2022-07-29T22:56:11.381Z,27.40
2022-07-29T22:58:40.506Z,27.40
2022-07-29T23:01:09.790Z,27.40
2022-07-29T23:03:40.574Z,27.40
2022-07-29T23:06:21.747Z,27.30
2022-07-29T23:08:50.982Z,27.40
2022-07-29T23:11:20.188Z,27.40
2022-07-29T23:13:49.378Z,27.40
2022-07-29T23:16:26.050Z,27.40
2022-07-29T23:18:55.807Z,27.30
2022-07-29T23:21:25.043Z,27.40
2022-07-29T23:23:54.766Z,27.40
2022-07-29T23:26:23.940Z,27.40
2022-07-29T23:28:53.140Z,27.40
2022-07-29T23:31:22.394Z,27.50
2022-07-29T23:33:51.591Z,27.50
2022-07-29T23:36:22.306Z,27.50
2022-07-29T23:38:51.700Z,27.50
2022-07-29T23:41:22.809Z,27.50
2022-07-29T23:43:52.241Z,27.60
2022-07-29T23:46:23.979Z,27.60
2022-07-29T23:48:53.529Z,27.60
2022-07-29T23:51:22.797Z,27.70
2022-07-29T23:53:53.605Z,27.70
2022-07-29T23:56:23.469Z,27.70
2022-07-29T23:58:52.882Z,27.70
